Tribune, Kentucky
Current Conditions -  °F | °C
As of 1:15 PM on Thursday 18 Dec 2014 (Local Time) from K5M9 Reporting Station
Overcast Overcast  
Wind Chill: 33°   Ceiling: 3100
Heat Index: 33°   Visibility: 10mi
Dew Point: 28°   Wind: 3mph
Humidity: 83%   Direction: 60°ENE
Pressure: 30.22"   Gusts: NA
Location:  37.3359°N, 88.1049°W
Report Text: K5M9 181915Z AUTO 06003KT 10SM OVC031 01/M02 A3022 RMK AO2 T00051021
Loading
Personal Weather Stations






























Interactive Weather Map New forecast layout! Learn more

10-Day Weather Forecast

Advertisements
Track Severe Weather on mobile